createdAt,value
2018-08-03T00:01:23.457Z,71.38
2018-08-03T00:04:00.608Z,69.85
2018-08-03T00:06:36.991Z,69.95
2018-08-03T00:09:12.586Z,68.93
2018-08-03T00:11:49.106Z,69.09
2018-08-03T00:14:25.861Z,70.61
2018-08-03T00:17:00.892Z,69.98
2018-08-03T00:19:35.755Z,68.78
2018-08-03T00:22:10.396Z,69.27
2018-08-03T00:24:44.892Z,68.94
2018-08-03T00:27:19.368Z,68.91
2018-08-03T00:29:53.896Z,68.14
2018-08-03T00:32:28.656Z,67.98
2018-08-03T00:35:03.700Z,68.25
2018-08-03T00:37:38.786Z,68.82
2018-08-03T00:40:13.357Z,69.23
2018-08-03T00:42:47.715Z,69.32
2018-08-03T00:45:22.684Z,69.21
2018-08-03T00:47:58.524Z,69.16
2018-08-03T00:50:33.380Z,69.13
2018-08-03T00:53:08.077Z,70.34
2018-08-03T00:55:42.812Z,70.04
2018-08-03T00:58:17.139Z,69.40
2018-08-03T01:00:51.551Z,69.65
2018-08-03T01:03:26.064Z,69.94
2018-08-03T01:06:00.897Z,70.57
2018-08-03T01:08:35.320Z,70.01
2018-08-03T01:11:09.775Z,70.44
2018-08-03T01:13:44.794Z,70.53
2018-08-03T01:16:19.218Z,70.49
2018-08-03T01:18:54.063Z,70.82
2018-08-03T01:21:28.507Z,71.30
2018-08-03T01:24:03.676Z,70.88
2018-08-03T01:26:38.560Z,70.85
2018-08-03T01:29:12.931Z,71.13
2018-08-03T01:31:47.925Z,71.26
2018-08-03T01:34:22.334Z,71.30
2018-08-03T01:36:56.987Z,71.50
2018-08-03T01:39:32.104Z,72.56
2018-08-03T01:42:06.723Z,71.95
2018-08-03T01:44:41.308Z,72.65
2018-08-03T01:47:16.117Z,72.62
2018-08-03T01:49:50.825Z,71.52
2018-08-03T01:52:25.676Z,72.58
2018-08-03T01:55:00.832Z,72.09
2018-08-03T01:57:41.435Z,72.27
2018-08-03T02:00:16.116Z,71.80
2018-08-03T02:02:50.929Z,71.93
2018-08-03T02:05:25.440Z,71.57
2018-08-03T02:08:00.293Z,72.19
2018-08-03T02:10:35.111Z,72.19
2018-08-03T02:13:09.924Z,71.51
2018-08-03T02:15:44.762Z,71.56
2018-08-03T02:18:20.200Z,71.62
2018-08-03T02:20:54.740Z,71.33
2018-08-03T02:23:29.644Z,72.24
2018-08-03T02:26:04.503Z,72.05
2018-08-03T02:28:38.983Z,71.69
2018-08-03T02:31:15.016Z,72.11
2018-08-03T02:33:49.408Z,72.31
2018-08-03T02:38:57.784Z,72.91
2018-08-03T02:41:32.688Z,72.17
2018-08-03T02:44:08.134Z,71.99
2018-08-03T02:46:42.811Z,72.35
2018-08-03T02:49:18.022Z,72.63
2018-08-03T02:51:53.410Z,71.96
2018-08-03T02:54:27.811Z,72.75
2018-08-03T02:57:02.652Z,72.77
2018-08-03T02:59:37.356Z,72.87
2018-08-03T03:02:12.260Z,73.35
2018-08-03T03:04:46.714Z,73.27
2018-08-03T03:07:21.442Z,73.29
2018-08-03T03:09:56.079Z,73.42
2018-08-03T03:12:30.570Z,73.06
2018-08-03T03:15:05.485Z,73.23
2018-08-03T03:17:40.246Z,73.41
2018-08-03T03:20:15.052Z,73.27
2018-08-03T03:22:49.497Z,73.61
2018-08-03T03:25:24.292Z,73.11
2018-08-03T03:27:58.848Z,73.35
2018-08-03T03:30:33.388Z,74.01
2018-08-03T03:33:08.917Z,73.48
2018-08-03T03:35:43.460Z,73.55
2018-08-03T03:38:17.925Z,74.42
2018-08-03T03:40:52.349Z,73.95
2018-08-03T03:43:27.012Z,74.37
2018-08-03T03:46:01.520Z,74.34
2018-08-03T03:48:36.379Z,74.67
2018-08-03T03:51:11.168Z,75.13
2018-08-03T03:53:46.083Z,74.30
2018-08-03T03:56:20.684Z,74.97
2018-08-03T03:58:55.388Z,75.11
2018-08-03T04:01:48.669Z,75.04
2018-08-03T04:04:23.178Z,75.44
2018-08-03T04:07:16.042Z,75.04
2018-08-03T04:09:50.845Z,75.37
2018-08-03T04:12:25.517Z,76.19
2018-08-03T04:15:00.167Z,75.50
2018-08-03T04:17:34.732Z,75.81
2018-08-03T04:20:09.760Z,76.44
2018-08-03T04:22:44.679Z,75.58
2018-08-03T04:25:19.424Z,75.71
2018-08-03T05:13:28.476Z,80.59
2018-08-03T05:16:03.158Z,79.70
2018-08-03T05:18:37.608Z,78.74
2018-08-03T05:21:12.721Z,77.89
2018-08-03T05:23:47.684Z,77.23
2018-08-03T05:26:22.977Z,77.53
2018-08-03T05:28:57.836Z,75.71
2018-08-03T05:31:32.623Z,75.24
2018-08-03T05:34:07.412Z,73.98
2018-08-03T05:36:42.469Z,74.28
2018-08-03T05:39:17.267Z,74.46
2018-08-03T05:41:52.184Z,75.28
2018-08-03T05:44:26.593Z,74.34
2018-08-03T05:47:01.266Z,74.31
2018-08-03T05:49:36.999Z,73.87
2018-08-03T05:52:11.714Z,74.79
2018-08-03T05:54:46.723Z,74.57
2018-08-03T05:57:21.429Z,74.62
2018-08-03T05:59:56.992Z,72.12
2018-08-03T06:02:31.855Z,71.58
2018-08-03T06:05:06.937Z,71.47
2018-08-03T06:07:41.970Z,71.51
2018-08-03T06:10:16.624Z,70.85
2018-08-03T06:12:51.149Z,70.64
2018-08-03T06:15:25.965Z,71.77
2018-08-03T06:18:01.093Z,70.13
2018-08-03T06:20:35.568Z,69.04
2018-08-03T06:23:10.152Z,70.20
2018-08-03T06:25:45.006Z,70.90
2018-08-03T06:28:19.624Z,69.24
2018-08-03T06:30:54.701Z,70.70
2018-08-03T06:33:29.246Z,71.83
2018-08-03T06:36:03.921Z,71.06
2018-08-03T06:38:42.152Z,70.89
2018-08-03T06:41:16.844Z,67.62
2018-08-03T06:43:51.589Z,68.94
2018-08-03T06:46:44.057Z,67.26
2018-08-03T06:49:18.472Z,69.69
2018-08-03T06:51:54.052Z,70.13
2018-08-03T06:54:29.144Z,69.30
2018-08-03T06:57:03.536Z,69.14
2018-08-03T06:59:38.377Z,68.43
2018-08-03T07:02:13.188Z,67.89
2018-08-03T07:04:47.722Z,68.69
2018-08-03T07:07:24.044Z,66.94
2018-08-03T07:09:58.582Z,68.98
2018-08-03T07:12:40.135Z,66.95
2018-08-03T07:15:14.733Z,68.71
2018-08-03T07:17:49.142Z,67.93
2018-08-03T07:20:24.036Z,68.76
2018-08-03T07:22:58.552Z,67.14
2018-08-03T07:25:33.061Z,67.75
2018-08-03T07:28:07.622Z,63.67
2018-08-03T07:30:44.581Z,67.02
2018-08-03T07:33:19.090Z,64.01
2018-08-03T07:35:54.240Z,65.06
2018-08-03T07:38:29.469Z,66.41
2018-08-03T07:41:04.678Z,65.98
2018-08-03T07:43:39.612Z,64.67
2018-08-03T07:46:14.080Z,64.43
2018-08-03T07:48:48.729Z,65.28
2018-08-03T07:51:23.328Z,64.28
2018-08-03T07:53:58.336Z,65.47
2018-08-03T07:56:33.243Z,64.64
2018-08-03T07:59:07.727Z,64.94
2018-08-03T08:01:42.138Z,64.59
2018-08-03T08:04:16.592Z,62.66
2018-08-03T08:06:52.741Z,62.46
2018-08-03T08:09:27.449Z,61.58
2018-08-03T08:12:02.457Z,65.76
2018-08-03T08:14:36.974Z,61.98
2018-08-03T08:17:12.023Z,62.07
2018-08-03T08:19:46.762Z,60.11
2018-08-03T08:22:21.668Z,62.77
2018-08-03T08:24:57.081Z,60.86
2018-08-03T08:27:31.924Z,63.98
2018-08-03T08:30:06.936Z,58.90
2018-08-03T08:32:41.772Z,61.79
2018-08-03T08:35:20.594Z,62.27
2018-08-03T08:37:55.318Z,64.25
2018-08-03T08:40:32.153Z,61.40
2018-08-03T08:43:07.133Z,59.28
2018-08-03T08:45:42.051Z,61.25
2018-08-03T08:48:39.045Z,58.44
2018-08-03T08:51:14.234Z,53.97
2018-08-03T08:53:50.809Z,54.37
2018-08-03T08:56:25.990Z,56.28
2018-08-03T08:59:01.519Z,55.51
2018-08-03T09:01:36.178Z,53.32
2018-08-03T09:04:15.841Z,53.60
2018-08-03T09:06:51.348Z,50.10
2018-08-03T09:09:26.217Z,49.62
2018-08-03T09:12:01.096Z,50.24
2018-08-03T09:14:36.447Z,51.49
2018-08-03T09:17:11.367Z,48.31
2018-08-03T09:19:45.820Z,48.18
2018-08-03T09:22:20.156Z,49.62
2018-08-03T09:24:54.569Z,52.34
2018-08-03T09:27:29.057Z,47.97
2018-08-03T09:30:03.740Z,48.12
2018-08-03T09:32:38.628Z,53.42
2018-08-03T09:35:13.073Z,47.25
2018-08-03T09:37:47.609Z,45.37
2018-08-03T09:40:22.064Z,51.49
2018-08-03T09:42:56.957Z,53.04
2018-08-03T09:45:32.193Z,47.87
2018-08-03T09:48:06.769Z,44.01
2018-08-03T09:50:41.462Z,43.49
2018-08-03T09:53:16.224Z,46.74
2018-08-03T09:55:50.788Z,47.40
2018-08-03T09:58:25.512Z,50.36
2018-08-03T10:01:05.381Z,43.56
2018-08-03T10:03:40.551Z,47.09
2018-08-03T10:06:15.188Z,42.78
2018-08-03T10:08:50.064Z,43.97
2018-08-03T10:11:24.901Z,43.81
2018-08-03T10:13:59.561Z,42.59
2018-08-03T10:16:33.899Z,46.86
2018-08-03T10:19:08.740Z,47.12
2018-08-03T10:21:43.724Z,47.56
2018-08-03T10:24:18.500Z,49.77
2018-08-03T10:26:52.956Z,45.77
2018-08-03T10:29:27.620Z,41.22
2018-08-03T10:32:02.632Z,42.96
2018-08-03T10:34:37.791Z,39.83
2018-08-03T10:37:12.594Z,39.90
2018-08-03T10:39:46.903Z,39.81
2018-08-03T10:42:21.401Z,42.16
2018-08-03T10:44:56.012Z,46.15
2018-08-03T10:47:30.709Z,42.86
2018-08-03T10:50:05.648Z,38.82
2018-08-03T10:52:40.400Z,42.29
2018-08-03T10:55:15.775Z,40.97
2018-08-03T10:57:51.014Z,46.85
2018-08-03T11:00:28.794Z,39.09
2018-08-03T11:03:05.783Z,39.73
2018-08-03T11:05:40.908Z,43.10
2018-08-03T11:08:15.760Z,42.75
2018-08-03T11:10:50.817Z,40.30
2018-08-03T11:13:25.388Z,40.10
2018-08-03T11:15:59.728Z,39.37
2018-08-03T11:18:34.128Z,42.34
2018-08-03T11:21:09.244Z,39.94
2018-08-03T11:23:45.428Z,42.10
2018-08-03T11:26:20.308Z,42.91
2018-08-03T11:29:11.119Z,37.90
2018-08-03T11:31:45.448Z,36.68
2018-08-03T11:34:20.413Z,41.02
2018-08-03T11:36:55.104Z,38.51
2018-08-03T11:39:29.988Z,38.88
2018-08-03T11:42:04.648Z,41.58
2018-08-03T11:44:39.548Z,41.39
2018-08-03T11:47:13.850Z,46.90
2018-08-03T11:49:48.665Z,45.92
2018-08-03T11:52:23.626Z,46.44
2018-08-03T11:54:57.937Z,46.58
2018-08-03T11:57:32.904Z,43.11
2018-08-03T12:00:08.372Z,44.94
2018-08-03T12:02:42.998Z,40.76
2018-08-03T12:05:23.217Z,42.56
2018-08-03T12:07:57.674Z,37.89
2018-08-03T12:10:32.957Z,36.60
2018-08-03T12:13:07.429Z,35.30
2018-08-03T12:15:41.745Z,38.00
2018-08-03T12:18:16.628Z,37.40
2018-08-03T12:20:51.325Z,37.77
2018-08-03T12:23:31.455Z,35.50
2018-08-03T12:26:12.473Z,35.85
2018-08-03T12:28:47.349Z,38.66
2018-08-03T12:31:22.147Z,38.55
2018-08-03T12:33:58.343Z,40.55
2018-08-03T12:36:44.332Z,41.26
2018-08-03T12:39:19.129Z,39.48
2018-08-03T12:42:01.240Z,36.95
2018-08-03T12:44:42.054Z,38.16
2018-08-03T12:47:18.062Z,37.02
2018-08-03T12:49:53.704Z,35.50
2018-08-03T12:52:29.537Z,32.63
2018-08-03T12:55:04.211Z,35.00
2018-08-03T12:57:38.748Z,34.75
2018-08-03T13:00:14.144Z,35.35
2018-08-03T13:02:48.426Z,37.50
2018-08-03T13:05:22.841Z,38.89
2018-08-03T13:08:02.396Z,44.70
2018-08-03T13:10:40.960Z,40.91
2018-08-03T13:13:18.899Z,39.83
2018-08-03T13:15:53.581Z,38.88
2018-08-03T13:18:27.996Z,38.18
2018-08-03T13:21:41.076Z,37.65
2018-08-03T13:24:15.873Z,34.87
2018-08-03T13:26:50.671Z,35.54
2018-08-03T13:29:25.454Z,32.11
2018-08-03T13:32:02.650Z,36.56
2018-08-03T13:34:37.904Z,32.36
2018-08-03T13:37:13.403Z,31.81
2018-08-03T13:39:47.982Z,33.41
2018-08-03T13:42:22.632Z,35.62
2018-08-03T13:44:57.021Z,33.38
2018-08-03T13:47:31.444Z,34.97
2018-08-03T13:50:06.229Z,34.14
2018-08-03T13:52:40.567Z,32.54
2018-08-03T13:55:15.621Z,30.09
2018-08-03T13:57:55.200Z,34.84
2018-08-03T14:00:29.990Z,30.73
2018-08-03T14:03:04.497Z,32.90
2018-08-03T14:05:39.543Z,31.85
2018-08-03T14:08:13.892Z,32.22
2018-08-03T14:10:48.743Z,35.25
2018-08-03T14:13:23.972Z,36.18
2018-08-03T14:15:58.512Z,37.49
2018-08-03T14:18:33.556Z,33.27
2018-08-03T14:21:08.983Z,35.25
2018-08-03T14:23:44.361Z,34.99
2018-08-03T14:26:23.591Z,33.25
2018-08-03T14:28:58.056Z,32.80
2018-08-03T14:31:33.481Z,32.61
2018-08-03T14:34:08.196Z,33.21
2018-08-03T14:36:43.318Z,32.01
2018-08-03T14:39:18.328Z,33.93
2018-08-03T14:41:53.301Z,32.41
2018-08-03T14:44:28.856Z,31.41
2018-08-03T14:47:03.714Z,34.19
2018-08-03T14:49:38.534Z,31.10
2018-08-03T14:52:13.836Z,34.40
2018-08-03T14:54:48.285Z,34.37
2018-08-03T14:57:24.210Z,34.88
2018-08-03T14:59:58.704Z,33.86
2018-08-03T15:02:34.036Z,33.89
2018-08-03T15:05:08.597Z,35.90
2018-08-03T15:07:43.235Z,34.63
2018-08-03T15:10:17.792Z,31.21
2018-08-03T15:12:52.555Z,36.17
2018-08-03T15:15:27.367Z,34.48
2018-08-03T15:18:02.125Z,30.88
2018-08-03T15:20:44.159Z,31.69
2018-08-03T15:23:19.017Z,30.88
2018-08-03T15:25:53.952Z,31.01
2018-08-03T15:28:30.133Z,33.08
2018-08-03T15:31:04.875Z,35.26
2018-08-03T15:33:39.838Z,36.23
2018-08-03T15:36:14.904Z,35.06
2018-08-03T15:38:49.666Z,39.37
2018-08-03T15:41:24.921Z,35.79
2018-08-03T15:43:59.805Z,35.63
2018-08-03T15:46:34.383Z,35.35
2018-08-03T15:49:09.452Z,34.85
2018-08-03T15:51:44.004Z,35.68
2018-08-03T15:54:18.727Z,33.16
2018-08-03T15:56:53.275Z,36.94
2018-08-03T15:59:27.888Z,35.68
2018-08-03T16:02:03.290Z,35.02
2018-08-03T16:04:38.077Z,35.35
2018-08-03T16:07:12.603Z,34.76
2018-08-03T16:09:47.754Z,34.80
2018-08-03T16:12:24.029Z,34.88
2018-08-03T16:15:00.656Z,36.65
2018-08-03T16:17:37.169Z,34.15
2018-08-03T16:20:31.200Z,35.63
2018-08-03T16:23:06.309Z,36.25
2018-08-03T16:25:45.265Z,35.34
2018-08-03T16:28:19.728Z,35.74
2018-08-03T16:30:54.076Z,35.42
2018-08-03T16:33:28.441Z,35.93
2018-08-03T16:36:03.323Z,33.75
2018-08-03T16:38:38.242Z,33.72
2018-08-03T16:41:13.477Z,35.18
2018-08-03T16:43:48.476Z,36.11
2018-08-03T16:46:26.321Z,35.57
2018-08-03T16:49:00.952Z,35.08
2018-08-03T16:51:39.188Z,35.20
2018-08-03T16:54:15.389Z,35.49
2018-08-03T16:56:56.905Z,35.87
2018-08-03T16:59:33.660Z,36.63
2018-08-03T17:02:08.721Z,36.08
2018-08-03T17:04:43.224Z,37.58
2018-08-03T17:07:18.825Z,36.24
2018-08-03T17:09:53.985Z,35.78
2018-08-03T17:12:37.923Z,35.80
2018-08-03T17:15:18.054Z,35.57
2018-08-03T17:17:53.194Z,35.27
2018-08-03T17:20:28.352Z,36.72
2018-08-03T17:23:05.625Z,35.90
2018-08-03T17:25:48.019Z,37.00
2018-08-03T17:28:22.885Z,37.21
2018-08-03T17:30:57.481Z,36.71
2018-08-03T17:33:32.179Z,37.75
2018-08-03T17:36:07.801Z,37.91
2018-08-03T17:38:44.133Z,38.17
2018-08-03T17:41:18.990Z,37.53
2018-08-03T17:43:53.303Z,38.72
2018-08-03T17:46:31.676Z,38.00
2018-08-03T17:49:06.048Z,38.65
2018-08-03T17:51:40.714Z,39.11
2018-08-03T17:54:15.245Z,39.76
2018-08-03T17:56:50.284Z,39.38
2018-08-03T17:59:25.111Z,40.69
2018-08-03T18:02:00.090Z,40.74
2018-08-03T18:04:34.773Z,40.51
2018-08-03T18:07:09.197Z,41.04
2018-08-03T18:09:43.629Z,41.50
2018-08-03T18:12:18.816Z,41.78
2018-08-03T18:14:53.348Z,42.43
2018-08-03T18:17:27.641Z,43.15
2018-08-03T18:20:02.117Z,43.65
2018-08-03T18:22:36.852Z,42.52
2018-08-03T18:25:12.294Z,42.14
2018-08-03T18:27:47.120Z,42.99
2018-08-03T18:30:21.507Z,43.08
2018-08-03T18:33:05.413Z,42.95
2018-08-03T18:35:46.962Z,43.88
2018-08-03T18:38:27.388Z,43.41
2018-08-03T18:41:02.231Z,43.47
2018-08-03T18:43:41.213Z,44.11
2018-08-03T18:46:16.476Z,45.57
2018-08-03T18:48:52.012Z,47.24
2018-08-03T18:51:27.152Z,47.26
2018-08-03T18:54:03.388Z,48.08
2018-08-03T18:56:38.033Z,48.94
2018-08-03T18:59:14.990Z,48.86
2018-08-03T19:01:49.803Z,49.58
2018-08-03T19:04:24.136Z,50.96
2018-08-03T19:06:59.508Z,50.85
2018-08-03T19:09:34.759Z,50.77
2018-08-03T19:12:10.115Z,52.15
2018-08-03T19:14:49.796Z,52.92
2018-08-03T19:17:24.825Z,53.01
2018-08-03T19:19:59.803Z,52.62
2018-08-03T19:22:35.086Z,54.31
2018-08-03T19:25:09.891Z,53.35
2018-08-03T19:27:44.389Z,53.66
2018-08-03T19:30:19.084Z,55.10
2018-08-03T19:32:54.108Z,55.45
2018-08-03T19:35:32.641Z,55.79
2018-08-03T19:38:08.448Z,55.26
2018-08-03T19:40:43.527Z,56.61
2018-08-03T19:43:18.354Z,56.65
2018-08-03T19:45:53.128Z,58.13
2018-08-03T19:48:27.414Z,57.01
2018-08-03T19:51:02.080Z,56.27
2018-08-03T19:53:36.457Z,57.19
2018-08-03T19:56:11.276Z,57.27
2018-08-03T19:58:46.495Z,57.36
2018-08-03T20:01:21.549Z,57.70
2018-08-03T20:03:59.396Z,57.33
2018-08-03T20:06:35.512Z,58.31
2018-08-03T20:09:11.645Z,58.43
2018-08-03T20:11:48.977Z,59.25
2018-08-03T20:14:23.554Z,59.30
2018-08-03T20:17:01.519Z,58.75
2018-08-03T20:19:36.024Z,59.81
2018-08-03T20:22:23.669Z,59.58
2018-08-03T20:24:59.718Z,60.10
2018-08-03T20:27:35.502Z,59.70
2018-08-03T20:30:16.761Z,60.15
2018-08-03T20:33:02.348Z,60.88
2018-08-03T20:35:37.172Z,61.30
2018-08-03T20:38:11.838Z,61.04
2018-08-03T20:40:46.604Z,61.55
2018-08-03T20:43:21.125Z,60.64
2018-08-03T20:45:56.110Z,62.11
2018-08-03T20:48:34.717Z,61.41
2018-08-03T20:51:09.464Z,61.36
2018-08-03T20:53:43.795Z,61.57
2018-08-03T20:56:19.201Z,60.69
2018-08-03T20:58:54.093Z,60.89
2018-08-03T21:01:29.720Z,61.06
2018-08-03T21:04:04.932Z,61.38
2018-08-03T21:06:40.235Z,60.78
2018-08-03T21:09:15.585Z,61.90
2018-08-03T21:11:50.589Z,62.08
2018-08-03T21:14:29.271Z,61.52
2018-08-03T21:17:04.065Z,63.20
2018-08-03T21:19:41.249Z,62.87
2018-08-03T21:22:17.485Z,63.40
2018-08-03T21:24:52.809Z,63.33
2018-08-03T21:27:27.997Z,63.86
2018-08-03T21:30:03.413Z,62.34
2018-08-03T21:32:38.744Z,63.34
2018-08-03T21:35:14.036Z,63.65
2018-08-03T21:37:48.443Z,64.13
2018-08-03T21:40:23.711Z,64.40
2018-08-03T21:42:58.736Z,64.28
2018-08-03T21:45:33.189Z,64.71
2018-08-03T21:48:12.274Z,64.92
2018-08-03T21:51:04.164Z,64.50
2018-08-03T21:53:39.081Z,65.04
2018-08-03T21:56:14.074Z,65.45
2018-08-03T21:58:55.168Z,65.91
2018-08-03T22:01:30.384Z,65.55
2018-08-03T22:04:04.718Z,66.15
2018-08-03T22:10:04.123Z,67.04
2018-08-03T22:12:59.044Z,66.71
2018-08-03T22:34:22.326Z,67.52
2018-08-03T22:43:36.889Z,68.62
2018-08-03T22:46:44.066Z,67.07
2018-08-03T22:50:18.940Z,67.88
2018-08-03T22:53:16.213Z,68.33
2018-08-03T23:12:26.766Z,69.20
2018-08-03T23:15:03.887Z,68.65
2018-08-03T23:17:55.793Z,68.62
2018-08-03T23:20:45.500Z,68.79
2018-08-03T23:23:38.537Z,68.76
2018-08-03T23:26:14.429Z,69.63
2018-08-03T23:28:55.108Z,68.83
2018-08-03T23:31:33.459Z,68.63
2018-08-03T23:34:15.167Z,68.58
2018-08-03T23:36:53.354Z,68.69
2018-08-03T23:39:37.792Z,68.72
2018-08-03T23:42:14.013Z,67.96
2018-08-03T23:44:54.624Z,68.67
2018-08-03T23:47:30.828Z,69.21
2018-08-03T23:50:19.962Z,69.45
2018-08-03T23:52:58.293Z,68.92
2018-08-03T23:55:36.630Z,69.94
2018-08-03T23:58:14.083Z,69.01
